Terminal Aerodrome Forecast
Issued by NWS

Home | Current Version | Previous Version | Graphics & Text | Print | Product List | Glossary On
Versions: 1 2 3 4 5 6 7 8 9 10 11 12 13 14 15 16
012
FTUS43 KGRB 171733
TAFCWA
TAF
KCWA 171733Z 1718/1818 24009G15KT 1 1/2SM -SN BKN018
      TEMPO 1718/1720 3SM -SN BKN025
     FM172000 25009G15KT P6SM -SN BKN018
     FM172200 27008G14KT P6SM SCT030 BKN090
     FM180300 28008KT P6SM SKC
     FM180900 VRB03KT P6SM SKC
     FM181400 13006KT P6SM BKN250
     FM181700 15013G23KT P6SM BKN090=

USA.gov is the U.S. government's official web portal to all federal, state and local government web resources and services.